Flight Track Log - Related Links

Times and Time Zones

All times are in EDT time to prevent confusion due to time zone crossing. See the KAP169 flight status page for this flight to view local times or setup timezone preferences in your user account.


Time Position Orientation Groundspeed Altitude Reporting Facility
EDT Latitude Longitude Course Direction KTS MPH feet Rate Location/Type
Fri 04:02:00 PM 43.9278 -69.4083 227° Southwest  Level FlightAware Approximate
Fri 04:03:00 PM 43.8985 -69.4544 245° Southwest  Level FlightAware Approximate
Fri 04:04:00 PM 43.8787 -69.5094 235° Southwest  Level FlightAware Approximate
Fri 04:05:00 PM 43.8533 -69.5600 235° Southwest  Level FlightAware Approximate
Fri 04:06:00 PM 43.8309 -69.6131 240° Southwest  Level FlightAware Approximate
Fri 04:07:00 PM 43.8088 -69.6665 240° Southwest  Level FlightAware Approximate
Fri 04:08:00 PM 43.7867 -69.7199 240° Southwest  Level FlightAware Approximate
Fri 04:09:00 PM 43.7646 -69.7733 240° Southwest  Level FlightAware Approximate
Fri 04:10:00 PM 43.7424 -69.8266 240° Southwest  Level FlightAware Approximate
Fri 04:11:00 PM 43.7203 -69.8799 240° Southwest  Level FlightAware Approximate
Fri 04:12:00 PM 43.6981 -69.9332 240° Southwest  Level FlightAware Approximate
Fri 04:13:00 PM 43.6759 -69.9864 240° Southwest  Level FlightAware Approximate
Fri 04:14:00 PM 43.6536 -70.0395 240° Southwest  Level FlightAware Approximate
Fri 04:15:00 PM 43.6314 -70.0926 240° Southwest  Level FlightAware Approximate
Fri 04:16:00 PM 43.6091 -70.1457 240° Southwest  Level FlightAware Approximate
Fri 04:17:00 PM 43.5868 -70.1988 240° Southwest  Level FlightAware Approximate
Fri 04:18:00 PM 43.5644 -70.2518 240° Southwest  Level FlightAware Approximate
Fri 04:19:00 PM 43.5421 -70.3047 240° Southwest  Level FlightAware Approximate
Fri 04:20:00 PM 43.5197 -70.3577 240° Southwest  Level FlightAware Approximate
Fri 04:21:00 PM 43.4973 -70.4106 240° Southwest  Level FlightAware Approximate
Fri 04:22:00 PM 43.4748 -70.4634 240° Southwest  Level FlightAware Approximate
Fri 04:22:01 PM 43.3000 -70.2667 207° Southwest 167 192 10,100  Level KA90
Fri 04:22:43 PM 43.2833 -70.3000 236° Southwest 169 194 10,000 -52 Descending KA90
Fri 04:23:00 PM 43.4524 -70.5162 240° Southwest  Level FlightAware Approximate
Fri 04:23:56 PM 43.2500 -70.3667 236° Southwest 168 193 10,000  Level KA90
Fri 04:24:00 PM 43.4299 -70.5690 240° Southwest  Level FlightAware Approximate
Fri 04:24:56 PM 43.2167 -70.4167 228° Southwest 166 191 10,000  Level KA90
Fri 04:25:00 PM 43.4004 -70.6116 207° Southwest  Level FlightAware Approximate
Fri 04:25:56 PM 43.1833 -70.4500 216° Southwest 163 188 10,000  Level KA90
Fri 04:26:00 PM 43.3610 -70.6398 207° Southwest  Level FlightAware Approximate
Fri 04:26:50 PM 43.1500 -70.5000 228° Southwest 159 183 10,000  Level KA90
Fri 04:27:00 PM 43.3216 -70.6679 207° Southwest  Level FlightAware Approximate
Fri 04:27:53 PM 43.1333 -70.5333 236° Southwest 149 171 10,000  Level KA90
Fri 04:28:50 PM 43.1000 -70.5667 216° Southwest 140 161 9,900 -341 Descending KA90
Fri 04:29:56 PM 43.0500 -70.6000 206° Southwest 194 223 9,300 -563 Descending KA90
Fri 04:30:58 PM 43.0000 -70.6333 206° Southwest 196 226 8,700 -541 Descending KA90
Fri 04:31:47 PM 42.9667 -70.6500 200° South 195 224 8,300 -495 Descending KA90
Fri 04:32:47 PM 42.9167 -70.6833 206° Southwest 196 226 7,800 -564 Descending KA90
Fri 04:33:44 PM 42.8667 -70.7167 206° Southwest 197 227 7,200 -410 Descending KA90
Fri 04:34:44 PM 42.8167 -70.7500 206° Southwest 184 212 7,000 -100 Descending KA90
Fri 04:35:44 PM 42.7833 -70.8000 228° Southwest 174 200 7,000 -200 Level KA90
Fri 04:36:44 PM 42.7500 -70.8333 216° Southwest 175 201 6,600 -500 Descending KA90
Fri 04:37:44 PM 42.7000 -70.8833 216° Southwest 184 212 6,000 -569 Descending KA90
Fri 04:38:40 PM 42.6667 -70.9167 216° Southwest 181 208 5,500 -537 Descending KA90
Fri 04:39:47 PM 42.6333 -70.9667 228° Southwest 184 212 4,900 -242 Descending KA90
Fri 04:40:44 PM 42.5833 -71.0167 216° Southwest 174 200 5,000 51 Climbing KA90
Fri 04:41:44 PM 42.5500 -71.0500 216° Southwest 182 209 5,000  Level KA90
Fri 04:42:50 PM 42.5000 -71.0833 206° Southwest 181 208 5,000 -52 Level KA90
Fri 04:43:39 PM 42.4667 -71.1167 216° Southwest 187 215 4,900 -54 Descending KA90
Fri 04:44:41 PM 42.4167 -71.1167 180° South 182 209 4,900 47 Level KA90
Fri 04:45:46 PM 42.3667 -71.1333 194° South 176 203 5,000 -435 Climbing KA90
Fri 04:46:45 PM 42.3000 -71.1333 180° South 191 220 4,000 -1,240 Descending KA90
Fri 04:47:47 PM 42.3000 -71.0833 90° East 158 182 2,500 -1,377 Descending KA90
Fri 04:48:47 PM 42.3167 -71.0333 66° East 148 170 1,200 -1,128 Descending KA90
Fri 04:49:44 PM 42.3500 -71.0167 20° North 127 146 300 -947 Descending KA90
Fri 04:51:00 PM 42.3500 -71.0000 172° South  Level FlightAware Approximate
Fri 04:58:00 PM 42.3630 -71.0064 172° South  Level Estimated

Login

Don't have an account? Register now (free) for customized features, flight alerts, and more!